Celestial — WDE5068 — position and weather

sailwx.info

Track history (hours):
 
Tides and Currents Weather Stations Pressure Air Temp Water Temp Dewpoint Dewpoint Depression Visibility Wind Speed Wind Dir Waves Ship Positions

Celestial

Owner: Entertainment Cruises, New York, NY. More information available from US FCC via Universal Licensing System and Coast Guard Vessel Documentation Center.

Last reported at 2018-Feb-19 03:02 UTC. Time now 2018-Feb-21 19:51 UTC.
Position N 40°45' W 074°01'.

Length 66 m; draft 3.1 m.

Type: Passenger vessel. MMSI: 367361620.

Date/timePositionNaut miles runAvg speedWind from/ knotsBaromVisibWave heightAir tempDewpointWater temp
2018-Feb-19 03:02N 40°45' W 074°01'0 0.2
2018-Feb-19 03:00N 40°45' W 074°01'2 3.3
2018-Feb-19 02:31N 40°43' W 074°01'2 4.5
2018-Feb-19 02:00N 40°41' W 074°02'2 4.4
2018-Feb-19 01:30N 40°42' W 073°60'1 2.4
2018-Feb-19 01:00N 40°43' W 074°01'3 6.1
2018-Feb-19 00:30N 40°46' W 074°01'1 1.9
2018-Feb-19 00:00N 40°45' W 074°01'0 0.0
2018-Feb-18 03:01N 40°45' W 074°01'0 0.0
2018-Feb-18 03:00N 40°45' W 074°01'2 3.4
2018-Feb-18 02:31N 40°43' W 074°01'2 4.5
2018-Feb-18 02:00N 40°41' W 074°03'2 4.9
2018-Feb-18 01:30N 40°42' W 073°60'1 2.5
2018-Feb-18 01:00N 40°43' W 074°01'3 5.9
2018-Feb-18 00:30N 40°46' W 074°00'1 1.8
2018-Feb-18 00:00N 40°45' W 074°01'0 0.0
2018-Feb-17 23:30N 40°45' W 074°01'0 0.0
2018-Feb-17 23:01N 40°45' W 074°01'0 0.0
2018-Feb-17 22:30N 40°45' W 074°01'0 0.0
2018-Feb-17 22:00N 40°45' W 074°01'0 0.0
2018-Feb-17 21:30N 40°45' W 074°01'0 0.0
2018-Feb-17 21:00N 40°45' W 074°01'0 0.0
2018-Feb-17 20:30N 40°45' W 074°01'0 0.0
2018-Feb-17 20:00N 40°45' W 074°01'0 0.0
2018-Feb-17 19:29N 40°45' W 074°01'0 0.0
2018-Feb-17 19:00N 40°45' W 074°01'1 2.5
2018-Feb-17 18:31N 40°44' W 074°01'3 5.3
2018-Feb-17 18:01N 40°41' W 074°03'1 2.7
2018-Feb-17 17:31N 40°42' W 074°01'3 0.2
2018-Feb-17 02:50N 40°45' W 074°01'1 3.3
2018-Feb-17 02:30N 40°44' W 074°01'3 5.5
2018-Feb-17 02:00N 40°41' W 074°02'2 3.4
2018-Feb-17 01:30N 40°42' W 074°00'1 1.7
2018-Feb-17 01:00N 40°42' W 074°01'3 6.8
2018-Feb-17 00:30N 40°45' W 074°01'1 1.2
2018-Feb-17 00:00N 40°45' W 074°01'0 0.0
2018-Feb-15 02:15N 40°45' W 074°01'1 2.4
2018-Feb-15 02:00N 40°45' W 074°01'1 1.3
2018-Feb-15 01:30N 40°46' W 074°01'3 5.9
2018-Feb-15 01:00N 40°43' W 074°01'1 2.9
2018-Feb-15 00:30N 40°42' W 074°01'2 3.4
2018-Feb-15 00:00N 40°44' W 074°01'1 2.8
2018-Feb-14 23:30N 40°45' W 074°01'  
2018-Feb-12 02:51N 40°45' W 074°01'1 3.2
2018-Feb-12 02:30N 40°44' W 074°01'3 5.6
2018-Feb-12 02:00N 40°41' W 074°02'2 4.1
2018-Feb-12 01:30N 40°42' W 074°00'1 2.0
2018-Feb-12 01:00N 40°42' W 074°01'3 5.9
2018-Feb-12 00:30N 40°45' W 074°01'0 0.6
2018-Feb-12 00:00N 40°45' W 074°01'0 0.0
2018-Feb-11 23:30N 40°45' W 074°01'0 0.0
2018-Feb-11 23:00N 40°45' W 074°01'0 0.0
2018-Feb-11 22:30N 40°45' W 074°01'0 0.0
2018-Feb-11 22:00N 40°45' W 074°01'0 0.0
2018-Feb-11 21:29N 40°45' W 074°01'0 0.0
2018-Feb-11 21:00N 40°45' W 074°01'0 0.0
2018-Feb-11 20:30N 40°45' W 074°01'0 0.0
2018-Feb-11 20:00N 40°45' W 074°01'0 0.0
2018-Feb-11 19:30N 40°45' W 074°01'0 0.0
2018-Feb-11 19:00N 40°45' W 074°01'2 3.1
2018-Feb-11 18:30N 40°43' W 074°01'2 4.8
2018-Feb-11 18:00N 40°41' W 074°02'2 4.6
2018-Feb-11 17:30N 40°43' W 074°01'2 3.1
2018-Feb-11 17:00N 40°45' W 074°01'0 0.0
2018-Feb-11 02:46N 40°45' W 074°01'1 4.1
2018-Feb-11 02:30N 40°44' W 074°01'3 5.3
2018-Feb-11 02:00N 40°41' W 074°02'2 4.2
2018-Feb-11 01:30N 40°42' W 073°60'1 2.2
2018-Feb-11 01:00N 40°42' W 074°01'3 6.2
2018-Feb-11 00:30N 40°45' W 074°01'0 0.7
2018-Feb-11 00:00N 40°45' W 074°01'0 0.0
2018-Feb-10 02:43N 40°45' W 074°01'1 3.4
2018-Feb-10 02:30N 40°44' W 074°01'3 5.8
2018-Feb-10 02:01N 40°41' W 074°03'3 5.0
2018-Feb-10 01:30N 40°42' W 073°60'1 2.9
2018-Feb-10 01:00N 40°42' W 074°01'3 6.7
2018-Feb-10 00:30N 40°45' W 074°01'1 1.0
2018-Feb-10 00:00N 40°45' W 074°01'  
Track history (hours):
 
Tides and Currents Weather Stations Pressure Air Temp Water Temp Dewpoint Dewpoint Depression Visibility Wind Speed Wind Dir Waves Ship Positions

Celestial

Owner: Entertainment Cruises, New York, NY. More information available from US FCC via Universal Licensing System and Coast Guard Vessel Documentation Center.

Last reported at 2018-Feb-19 03:02 UTC. Time now 2018-Feb-21 19:51 UTC.
Position N 40°45' W 074°01'.

Length 66 m; draft 3.1 m.

Type: Passenger vessel. MMSI: 367361620.

Date/timePositionNaut miles runAvg speedWind from/ knotsBaromVisibWave heightAir tempDewpointWater temp
2018-Feb-19 03:02N 40°45' W 074°01'0 0.2
2018-Feb-19 03:00N 40°45' W 074°01'2 3.3
2018-Feb-19 02:31N 40°43' W 074°01'2 4.5
2018-Feb-19 02:00N 40°41' W 074°02'2 4.4
2018-Feb-19 01:30N 40°42' W 073°60'1 2.4
2018-Feb-19 01:00N 40°43' W 074°01'3 6.1
2018-Feb-19 00:30N 40°46' W 074°01'1 1.9
2018-Feb-19 00:00N 40°45' W 074°01'0 0.0
2018-Feb-18 03:01N 40°45' W 074°01'0 0.0
2018-Feb-18 03:00N 40°45' W 074°01'2 3.4
2018-Feb-18 02:31N 40°43' W 074°01'2 4.5
2018-Feb-18 02:00N 40°41' W 074°03'2 4.9
2018-Feb-18 01:30N 40°42' W 073°60'1 2.5
2018-Feb-18 01:00N 40°43' W 074°01'3 5.9
2018-Feb-18 00:30N 40°46' W 074°00'1 1.8
2018-Feb-18 00:00N 40°45' W 074°01'0 0.0
2018-Feb-17 23:30N 40°45' W 074°01'0 0.0
2018-Feb-17 23:01N 40°45' W 074°01'0 0.0
2018-Feb-17 22:30N 40°45' W 074°01'0 0.0
2018-Feb-17 22:00N 40°45' W 074°01'0 0.0
2018-Feb-17 21:30N 40°45' W 074°01'0 0.0
2018-Feb-17 21:00N 40°45' W 074°01'0 0.0
2018-Feb-17 20:30N 40°45' W 074°01'0 0.0
2018-Feb-17 20:00N 40°45' W 074°01'0 0.0
2018-Feb-17 19:29N 40°45' W 074°01'0 0.0
2018-Feb-17 19:00N 40°45' W 074°01'1 2.5
2018-Feb-17 18:31N 40°44' W 074°01'3 5.3
2018-Feb-17 18:01N 40°41' W 074°03'1 2.7
2018-Feb-17 17:31N 40°42' W 074°01'3 0.2
2018-Feb-17 02:50N 40°45' W 074°01'1 3.3
2018-Feb-17 02:30N 40°44' W 074°01'3 5.5
2018-Feb-17 02:00N 40°41' W 074°02'2 3.4
2018-Feb-17 01:30N 40°42' W 074°00'1 1.7
2018-Feb-17 01:00N 40°42' W 074°01'3 6.8
2018-Feb-17 00:30N 40°45' W 074°01'1 1.2
2018-Feb-17 00:00N 40°45' W 074°01'0 0.0
2018-Feb-15 02:15N 40°45' W 074°01'1 2.4
2018-Feb-15 02:00N 40°45' W 074°01'1 1.3
2018-Feb-15 01:30N 40°46' W 074°01'3 5.9
2018-Feb-15 01:00N 40°43' W 074°01'1 2.9
2018-Feb-15 00:30N 40°42' W 074°01'2 3.4
2018-Feb-15 00:00N 40°44' W 074°01'1 2.8
2018-Feb-14 23:30N 40°45' W 074°01'  
2018-Feb-12 02:51N 40°45' W 074°01'1 3.2
2018-Feb-12 02:30N 40°44' W 074°01'3 5.6
2018-Feb-12 02:00N 40°41' W 074°02'2 4.1
2018-Feb-12 01:30N 40°42' W 074°00'1 2.0
2018-Feb-12 01:00N 40°42' W 074°01'3 5.9
2018-Feb-12 00:30N 40°45' W 074°01'0 0.6
2018-Feb-12 00:00N 40°45' W 074°01'0 0.0
2018-Feb-11 23:30N 40°45' W 074°01'0 0.0
2018-Feb-11 23:00N 40°45' W 074°01'0 0.0
2018-Feb-11 22:30N 40°45' W 074°01'0 0.0
2018-Feb-11 22:00N 40°45' W 074°01'0 0.0
2018-Feb-11 21:29N 40°45' W 074°01'0 0.0
2018-Feb-11 21:00N 40°45' W 074°01'0 0.0
2018-Feb-11 20:30N 40°45' W 074°01'0 0.0
2018-Feb-11 20:00N 40°45' W 074°01'0 0.0
2018-Feb-11 19:30N 40°45' W 074°01'0 0.0
2018-Feb-11 19:00N 40°45' W 074°01'2 3.1
2018-Feb-11 18:30N 40°43' W 074°01'2 4.8
2018-Feb-11 18:00N 40°41' W 074°02'2 4.6
2018-Feb-11 17:30N 40°43' W 074°01'2 3.1
2018-Feb-11 17:00N 40°45' W 074°01'0 0.0
2018-Feb-11 02:46N 40°45' W 074°01'1 4.1
2018-Feb-11 02:30N 40°44' W 074°01'3 5.3
2018-Feb-11 02:00N 40°41' W 074°02'2 4.2
2018-Feb-11 01:30N 40°42' W 073°60'1 2.2
2018-Feb-11 01:00N 40°42' W 074°01'3 6.2
2018-Feb-11 00:30N 40°45' W 074°01'0 0.7
2018-Feb-11 00:00N 40°45' W 074°01'0 0.0
2018-Feb-10 02:43N 40°45' W 074°01'1 3.4
2018-Feb-10 02:30N 40°44' W 074°01'3 5.8
2018-Feb-10 02:01N 40°41' W 074°03'3 5.0
2018-Feb-10 01:30N 40°42' W 073°60'1 2.9
2018-Feb-10 01:00N 40°42' W 074°01'3 6.7
2018-Feb-10 00:30N 40°45' W 074°01'1 1.0
2018-Feb-10 00:00N 40°45' W 074°01'  

Dump ship's entire track history